TimeEDT,TemperatureF,Dew PointF,Humidity,Sea Level PressureIn,VisibilityMPH,Wind Direction,Wind SpeedMPH,Gust SpeedMPH,PrecipitationIn,Events,Conditions,WindDirDegrees,DateUTC
12:08 AM,78.8,73.4,83,29.82,9.0,SW,12.7,19.6,N/A,Thunderstorm,Thunderstorm,220,2013-06-28 04:08:00
12:38 AM,77.0,71.6,83,29.82,10.0,WSW,16.1,27.6,0.00,Thunderstorm,Thunderstorm,240,2013-06-28 04:38:00
12:57 AM,77.0,70.0,79,29.82,10.0,WSW,11.5,23.0,0.00,Rain,Light Rain,240,2013-06-28 04:57:00
1:09 AM,77.0,69.8,78,29.81,10.0,WSW,9.2,18.4,0.00,,Mostly Cloudy,250,2013-06-28 05:09:00
1:57 AM,78.1,73.9,87,29.80,8.0,SW,13.8,24.2,0.00,,Mostly Cloudy,220,2013-06-28 05:57:00
2:57 AM,79.0,75.0,88,29.79,8.0,SW,16.1,24.2,N/A,,Overcast,220,2013-06-28 06:57:00
3:57 AM,80.1,75.0,85,29.77,8.0,SW,15.0,28.8,N/A,,Overcast,230,2013-06-28 07:57:00
4:57 AM,79.0,75.0,88,29.74,9.0,SW,17.3,26.5,0.00,Rain,Light Rain,220,2013-06-28 08:57:00
5:20 AM,78.8,73.4,83,29.73,8.0,SW,16.1,21.9,N/A,,Scattered Clouds,220,2013-06-28 09:20:00
5:57 AM,79.0,73.9,84,29.75,9.0,SW,13.8,-,N/A,,Scattered Clouds,230,2013-06-28 09:57:00
6:19 AM,78.8,75.2,89,29.74,7.0,SW,10.4,19.6,N/A,,Overcast,230,2013-06-28 10:19:00
6:26 AM,78.8,75.2,89,29.74,7.0,SW,11.5,-,N/A,,Overcast,220,2013-06-28 10:26:00
6:57 AM,79.0,75.0,88,29.75,6.0,SW,13.8,21.9,N/A,,Overcast,230,2013-06-28 10:57:00
7:04 AM,78.8,75.2,89,29.73,6.0,SW,13.8,21.9,N/A,,Overcast,230,2013-06-28 11:04:00
7:13 AM,80.6,75.2,84,29.73,6.0,SW,15.0,21.9,N/A,,Haze,230,2013-06-28 11:13:00
7:54 AM,80.1,75.9,87,29.75,6.0,WSW,15.0,20.7,N/A,,Overcast,240,2013-06-28 11:54:00
8:33 AM,80.6,75.2,84,29.73,6.0,WSW,17.3,23.0,N/A,,Overcast,240,2013-06-28 12:33:00
8:43 AM,80.6,75.2,84,29.73,6.0,WSW,13.8,24.2,N/A,,Overcast,240,2013-06-28 12:43:00
8:57 AM,81.0,75.9,85,29.75,6.0,WSW,11.5,23.0,N/A,,Haze,240,2013-06-28 12:57:00
9:15 AM,80.6,75.2,84,29.74,7.0,WSW,8.1,19.6,0.00,Rain,Light Rain,240,2013-06-28 13:15:00
9:26 AM,80.6,75.2,84,29.74,6.0,WSW,9.2,17.3,0.00,,Haze,240,2013-06-28 13:26:00
9:57 AM,82.0,75.9,82,29.75,7.0,SW,11.5,-,0.00,,Mostly Cloudy,230,2013-06-28 13:57:00
10:14 AM,82.4,73.4,74,29.74,8.0,SW,13.8,-,N/A,,Mostly Cloudy,230,2013-06-28 14:14:00
10:57 AM,82.0,75.0,79,29.75,7.0,SW,16.1,23.0,N/A,,Mostly Cloudy,220,2013-06-28 14:57:00
11:15 AM,82.4,75.2,79,29.74,8.0,SW,15.0,20.7,N/A,,Mostly Cloudy,220,2013-06-28 15:15:00
11:57 AM,82.9,75.0,77,29.76,8.0,SW,17.3,24.2,N/A,,Partly Cloudy,230,2013-06-28 15:57:00
12:57 PM,81.0,75.0,82,29.75,5.0,SW,13.8,24.2,0.00,Rain,Light Rain,220,2013-06-28 16:57:00
1:57 PM,82.9,75.0,77,29.72,9.0,SW,16.1,23.0,0.00,,Partly Cloudy,230,2013-06-28 17:57:00
2:57 PM,84.0,75.9,76,29.71,9.0,SW,13.8,24.2,N/A,,Clear,220,2013-06-28 18:57:00
3:57 PM,82.9,75.0,77,29.70,9.0,SW,19.6,26.5,N/A,,Clear,220,2013-06-28 19:57:00
4:57 PM,82.9,75.0,77,29.70,8.0,SSW,12.7,24.2,N/A,,Clear,210,2013-06-28 20:57:00
5:57 PM,82.0,75.0,79,29.68,7.0,SW,16.1,23.0,N/A,,Clear,220,2013-06-28 21:57:00
6:57 PM,81.0,75.0,82,29.68,7.0,SW,16.1,26.5,N/A,,Clear,220,2013-06-28 22:57:00
7:21 PM,80.6,75.2,84,29.69,6.0,SW,13.8,26.5,N/A,,Haze,220,2013-06-28 23:21:00
7:39 PM,80.6,75.2,84,29.70,6.0,SW,15.0,23.0,N/A,,Mostly Cloudy,230,2013-06-28 23:39:00
7:57 PM,80.1,75.9,87,29.70,6.0,SW,12.7,21.9,N/A,,Overcast,220,2013-06-28 23:57:00
8:57 PM,80.1,75.9,87,29.70,7.0,SW,15.0,26.5,N/A,,Mostly Cloudy,220,2013-06-29 00:57:00
9:14 PM,80.6,75.2,84,29.70,7.0,SW,16.1,24.2,N/A,,Overcast,230,2013-06-29 01:14:00
9:57 PM,80.1,75.9,87,29.72,7.0,SW,13.8,21.9,N/A,,Overcast,220,2013-06-29 01:57:00
10:08 PM,80.6,75.2,84,29.71,8.0,SW,12.7,23.0,N/A,,Overcast,220,2013-06-29 02:08:00
10:26 PM,80.6,75.2,84,29.72,7.0,SW,15.0,20.7,N/A,,Overcast,220,2013-06-29 02:26:00
10:57 PM,80.1,75.9,87,29.73,7.0,SW,11.5,21.9,N/A,,Overcast,220,2013-06-29 02:57:00
11:57 PM,79.0,75.9,90,29.71,7.0,SW,9.2,-,N/A,,Overcast,220,2013-06-29 03:57:00